Time;durP1;ratioP1;P1;durP2;ratioP2;P2;SDS_P1;SDS_P2;PMS_P1;PMS_P2;Temp;Humidity;BMP_temperature;BMP_pressure;BME280_temperature;BME280_humidity;BME280_pressure;Samples;Min_cycle;Max_cycle;Signal;HPM_P1;HPM_P2
2021/05/26 00:00:35;;;;;;;12.35;6.30;;;9.30;99.90;;;;;;5031332;28;20515;-69
2021/05/26 00:03:01;;;;;;;11.00;6.88;;;9.40;99.90;;;;;;5024510;28;20030;-69
2021/05/26 00:05:28;;;;;;;16.25;7.20;;;9.50;99.90;;;;;;5028787;28;20056;-68
2021/05/26 00:07:54;;;;;;;15.18;7.10;;;9.50;99.90;;;;;;5014516;28;20026;-68
2021/05/26 00:10:20;;;;;;;18.73;6.88;;;9.60;99.90;;;;;;5016758;28;20452;-68
2021/05/26 00:12:45;;;;;;;14.55;7.25;;;9.70;99.90;;;;;;5024446;28;20025;-68
2021/05/26 00:15:11;;;;;;;23.30;8.85;;;9.70;99.90;;;;;;5019811;28;20049;-68
2021/05/26 00:17:37;;;;;;;32.58;9.88;;;9.80;99.90;;;;;;5016579;28;20071;-68
2021/05/26 00:20:11;;;;;;;29.40;10.63;;;9.90;99.90;;;;;;5029116;28;20076;-68
2021/05/26 00:22:37;;;;;;;35.10;10.70;;;10.00;99.90;;;;;;5021193;28;20015;-68
2021/05/26 00:25:04;;;;;;;38.20;11.40;;;10.10;99.90;;;;;;5016346;28;20099;-66
2021/05/26 00:27:30;;;;;;;31.95;8.50;;;10.10;99.90;;;;;;5024879;28;20121;-67
2021/05/26 00:29:55;;;;;;;31.52;8.93;;;10.20;99.90;;;;;;5021929;28;20092;-67
2021/05/26 00:32:21;;;;;;;35.70;10.10;;;10.30;99.90;;;;;;5022134;28;20026;-67
2021/05/26 00:34:46;;;;;;;32.88;9.80;;;10.30;99.90;;;;;;5027584;28;20068;-67
2021/05/26 00:37:12;;;;;;;31.95;8.73;;;10.30;99.90;;;;;;5031927;28;20399;-67
2021/05/26 00:39:38;;;;;;;26.63;8.77;;;10.30;99.90;;;;;;5028426;28;20045;-68
2021/05/26 00:42:03;;;;;;;33.28;8.88;;;10.30;99.90;;;;;;5019861;28;20037;-68
2021/05/26 00:44:29;;;;;;;32.42;8.60;;;10.30;99.90;;;;;;5023524;28;20054;-67
2021/05/26 00:46:55;;;;;;;27.67;8.27;;;10.30;99.90;;;;;;5030168;28;20049;-67
2021/05/26 00:49:22;;;;;;;28.08;8.23;;;10.30;99.90;;;;;;5033527;28;20531;-67
2021/05/26 00:51:47;;;;;;;31.73;9.55;;;10.30;99.90;;;;;;5021122;28;20020;-66
2021/05/26 00:54:13;;;;;;;34.20;7.95;;;10.30;99.90;;;;;;5019002;28;20034;-66
2021/05/26 00:56:38;;;;;;;38.28;8.00;;;10.30;99.90;;;;;;5029718;28;20025;-66
2021/05/26 00:59:05;;;;;;;40.67;9.20;;;10.30;99.90;;;;;;5027805;28;20085;-67
2021/05/26 01:01:31;;;;;;;25.38;8.60;;;10.30;99.90;;;;;;5034920;28;20052;-66
2021/05/26 01:03:57;;;;;;;33.80;8.95;;;10.20;99.90;;;;;;5020933;28;20029;-66
2021/05/26 01:06:24;;;;;;;26.52;8.20;;;10.20;99.90;;;;;;5045273;28;20027;-67
2021/05/26 01:08:50;;;;;;;28.23;8.07;;;10.20;99.90;;;;;;5041846;28;20588;-68
2021/05/26 01:11:15;;;;;;;33.10;8.68;;;10.20;99.90;;;;;;5031501;28;20026;-68
2021/05/26 01:13:41;;;;;;;31.63;8.25;;;10.20;99.90;;;;;;5032072;28;20390;-67
2021/05/26 01:16:07;;;;;;;40.92;9.25;;;10.20;99.90;;;;;;5024252;28;20022;-68
2021/05/26 01:18:35;;;;;;;37.22;8.52;;;10.20;99.90;;;;;;5017417;28;20505;-67
2021/05/26 01:21:06;;;;;;;31.10;8.23;;;10.20;99.90;;;;;;5029675;28;20137;-66
2021/05/26 01:23:32;;;;;;;24.00;7.75;;;10.10;99.90;;;;;;5032933;28;20048;-67
2021/05/26 01:25:59;;;;;;;29.48;8.52;;;10.10;99.90;;;;;;5033990;28;20508;-68
2021/05/26 01:28:28;;;;;;;30.80;9.13;;;10.20;99.90;;;;;;5029188;28;20029;-67
2021/05/26 01:30:56;;;;;;;31.60;8.88;;;10.30;99.90;;;;;;5035345;28;20028;-67
2021/05/26 01:33:22;;;;;;;28.60;8.85;;;10.20;99.90;;;;;;5020115;28;20025;-68
2021/05/26 01:35:49;;;;;;;31.23;10.02;;;10.30;99.90;;;;;;5027005;28;20026;-68
2021/05/26 01:38:18;;;;;;;27.55;9.27;;;10.20;99.90;;;;;;5030260;28;20064;-68
2021/05/26 01:40:44;;;;;;;38.17;10.30;;;10.20;99.90;;;;;;5045407;28;20013;-67
2021/05/26 01:43:12;;;;;;;31.67;10.07;;;10.20;99.90;;;;;;5047631;28;20048;-67
2021/05/26 01:45:38;;;;;;;36.13;10.32;;;10.20;99.90;;;;;;5051238;28;20014;-67
2021/05/26 01:48:04;;;;;;;24.67;9.13;;;10.20;99.90;;;;;;5035574;28;20770;-67
2021/05/26 01:50:29;;;;;;;27.50;8.40;;;10.20;99.90;;;;;;5033813;28;20024;-68
2021/05/26 01:53:05;;;;;;;31.70;9.77;;;10.20;99.90;;;;;;5024281;28;20148;-67
2021/05/26 01:55:34;;;;;;;33.92;10.02;;;10.20;99.90;;;;;;5031245;28;20021;-67
2021/05/26 01:58:04;;;;;;;30.60;8.60;;;10.20;99.90;;;;;;5031489;28;20087;-68
2021/05/26 02:00:30;;;;;;;26.40;8.48;;;10.20;99.90;;;;;;5033586;28;20091;-69
2021/05/26 02:02:56;;;;;;;27.63;8.73;;;10.10;99.90;;;;;;5015278;28;20274;-66
2021/05/26 02:05:22;;;;;;;27.40;8.07;;;10.10;99.90;;;;;;5026747;28;20024;-67
2021/05/26 02:07:47;;;;;;;31.42;8.07;;;10.10;99.90;;;;;;5029563;28;20405;-68
2021/05/26 02:10:17;;;;;;;21.00;7.00;;;10.10;99.90;;;;;;5022407;28;20033;-69
2021/05/26 02:12:44;;;;;;;17.52;7.10;;;10.00;99.90;;;;;;5028037;28;20146;-68
2021/05/26 02:15:13;;;;;;;26.95;7.35;;;9.90;99.90;;;;;;5027434;28;20425;-68
2021/05/26 02:17:38;;;;;;;16.08;5.78;;;9.90;99.90;;;;;;5023370;28;20026;-68
2021/05/26 02:20:06;;;;;;;20.60;6.13;;;9.90;99.90;;;;;;5028495;28;20075;-68
2021/05/26 02:22:33;;;;;;;21.25;6.00;;;9.90;99.90;;;;;;5046210;28;20319;-69
2021/05/26 02:24:59;;;;;;;16.77;5.30;;;9.90;99.90;;;;;;5024520;28;20317;-68
2021/05/26 02:27:26;;;;;;;13.75;5.53;;;9.80;99.90;;;;;;5016424;28;20033;-68
2021/05/26 02:29:53;;;;;;;12.70;5.60;;;9.80;99.90;;;;;;5038895;28;20025;-70
2021/05/26 02:32:22;;;;;;;16.95;5.05;;;9.70;99.90;;;;;;5031130;28;20056;-69
2021/05/26 02:34:47;;;;;;;13.63;4.20;;;9.60;99.90;;;;;;5032632;28;20029;-67
2021/05/26 02:37:13;;;;;;;18.17;5.97;;;9.60;99.90;;;;;;5024399;28;20041;-67
2021/05/26 02:39:39;;;;;;;14.30;4.95;;;9.60;99.90;;;;;;5028993;28;20025;-67
2021/05/26 02:42:05;;;;;;;14.35;4.90;;;9.60;99.90;;;;;;5031650;28;20039;-68
2021/05/26 02:44:30;;;;;;;12.25;4.97;;;9.60;99.90;;;;;;5023016;28;20032;-69
2021/05/26 02:46:56;;;;;;;12.27;5.60;;;9.60;99.90;;;;;;5037404;28;20029;-69
2021/05/26 02:49:22;;;;;;;13.45;5.50;;;9.60;99.90;;;;;;5026211;28;20029;-68
2021/05/26 02:51:48;;;;;;;12.48;5.18;;;9.70;99.90;;;;;;5034813;28;20032;-68
2021/05/26 02:54:13;;;;;;;18.95;6.13;;;9.60;99.90;;;;;;5031001;28;20095;-70
2021/05/26 02:56:39;;;;;;;14.60;5.20;;;9.60;99.90;;;;;;5026075;28;20036;-69
2021/05/26 02:59:07;;;;;;;19.85;5.18;;;9.60;99.90;;;;;;5029215;28;20033;-69
2021/05/26 03:01:33;;;;;;;17.65;5.68;;;9.60;99.90;;;;;;5016340;28;20026;-69
2021/05/26 03:03:59;;;;;;;15.65;4.57;;;9.70;99.90;;;;;;5027505;28;20030;-70
2021/05/26 03:06:25;;;;;;;13.10;5.40;;;9.70;99.90;;;;;;5031835;28;20018;-67
2021/05/26 03:08:50;;;;;;;9.32;5.05;;;9.70;99.90;;;;;;5027478;28;20036;-69
2021/05/26 03:11:16;;;;;;;15.32;6.00;;;9.60;99.90;;;;;;5024823;28;20164;-68
2021/05/26 03:13:42;;;;;;;16.50;5.03;;;9.70;99.90;;;;;;5027573;28;20069;-68
2021/05/26 03:16:08;;;;;;;11.98;5.40;;;9.70;99.90;;;;;;5031879;28;20455;-69
2021/05/26 03:18:34;;;;;;;13.32;6.10;;;9.80;99.90;;;;;;5002842;28;20280;-68
2021/05/26 03:21:00;;;;;;;13.35;6.00;;;9.80;99.90;;;;;;5032476;28;20030;-68
2021/05/26 03:23:25;;;;;;;12.35;5.13;;;9.80;99.90;;;;;;5022538;28;20048;-69
2021/05/26 03:25:51;;;;;;;21.38;7.20;;;9.80;99.90;;;;;;5021928;28;20028;-69
2021/05/26 03:28:17;;;;;;;15.45;6.28;;;9.80;99.90;;;;;;5025756;28;20529;-69
2021/05/26 03:30:45;;;;;;;13.50;6.93;;;9.90;99.90;;;;;;5032510;28;20509;-69
2021/05/26 03:33:12;;;;;;;18.38;7.53;;;9.90;99.90;;;;;;5031582;28;20116;-69
2021/05/26 03:35:40;;;;;;;18.23;7.30;;;9.90;99.90;;;;;;5028393;28;20025;-67
2021/05/26 03:38:06;;;;;;;14.23;7.35;;;9.80;99.90;;;;;;5030259;28;20060;-69
2021/05/26 03:40:32;;;;;;;15.15;7.78;;;9.90;99.90;;;;;;5035648;28;20040;-67
2021/05/26 03:42:58;;;;;;;15.07;7.47;;;9.90;99.90;;;;;;5027160;28;20076;-68
2021/05/26 03:45:24;;;;;;;16.38;7.43;;;9.90;99.90;;;;;;5030160;28;20105;-69
2021/05/26 03:47:50;;;;;;;23.65;7.80;;;9.90;99.90;;;;;;5031047;28;20539;-67
2021/05/26 03:50:16;;;;;;;22.42;8.13;;;9.90;99.90;;;;;;5032396;28;20061;-69
2021/05/26 03:52:45;;;;;;;12.57;6.90;;;9.80;99.90;;;;;;5029101;28;20087;-67
2021/05/26 03:55:12;;;;;;;16.95;7.95;;;9.70;99.90;;;;;;5020297;28;20026;-66
2021/05/26 03:57:38;;;;;;;18.08;8.27;;;9.70;99.90;;;;;;5024710;28;20187;-69
2021/05/26 04:00:07;;;;;;;17.60;7.00;;;9.70;99.90;;;;;;5027597;28;20030;-67
2021/05/26 04:02:33;;;;;;;18.90;8.43;;;9.70;99.90;;;;;;5025027;28;20195;-67
2021/05/26 04:04:58;;;;;;;18.50;8.95;;;9.70;99.90;;;;;;5038433;28;20633;-68
2021/05/26 04:07:24;;;;;;;21.58;8.98;;;9.80;99.90;;;;;;5036025;28;20049;-68
2021/05/26 04:09:49;;;;;;;20.85;8.43;;;9.80;99.90;;;;;;5038265;23;20060;-76
2021/05/26 04:12:15;;;;;;;19.42;8.95;;;9.90;99.90;;;;;;5012800;28;20046;-77
2021/05/26 04:14:41;;;;;;;23.15;10.48;;;9.90;99.90;;;;;;5010918;28;20033;-75
2021/05/26 04:17:06;;;;;;;18.90;8.90;;;9.80;99.90;;;;;;4990398;28;20038;-77
2021/05/26 04:19:32;;;;;;;20.33;9.50;;;9.80;99.90;;;;;;4992470;28;20061;-76
2021/05/26 04:21:58;;;;;;;12.93;8.05;;;9.90;99.90;;;;;;5009665;28;20035;-77
2021/05/26 04:24:23;;;;;;;24.27;10.77;;;9.90;99.90;;;;;;5007084;28;20050;-75
2021/05/26 04:26:49;;;;;;;20.55;10.20;;;9.90;99.90;;;;;;5004013;28;20050;-77
2021/05/26 04:29:18;;;;;;;18.80;10.05;;;9.80;99.90;;;;;;4997840;28;20022;-77
2021/05/26 04:31:43;;;;;;;21.77;11.18;;;9.80;99.90;;;;;;4994756;28;20049;-77
2021/05/26 04:34:09;;;;;;;21.42;11.00;;;9.80;99.90;;;;;;4997100;28;20049;-77
2021/05/26 04:36:35;;;;;;;22.25;9.93;;;9.80;99.90;;;;;;4996577;28;20081;-76
2021/05/26 04:39:01;;;;;;;25.58;10.65;;;9.80;99.90;;;;;;5004766;28;20036;-76
2021/05/26 04:41:26;;;;;;;24.75;9.98;;;9.80;99.90;;;;;;5000455;28;20065;-76
2021/05/26 04:43:52;;;;;;;24.08;10.43;;;9.90;99.90;;;;;;5008614;28;20041;-77
2021/05/26 04:46:18;;;;;;;22.08;9.85;;;9.90;99.90;;;;;;5000152;28;20034;-77
2021/05/26 04:48:44;;;;;;;22.30;10.05;;;9.90;99.90;;;;;;5001361;28;20026;-77
2021/05/26 04:51:10;;;;;;;21.67;10.27;;;9.80;99.90;;;;;;5014165;28;20042;-76
2021/05/26 04:53:35;;;;;;;20.85;10.13;;;9.80;99.90;;;;;;5007746;28;20086;-76
2021/05/26 04:56:01;;;;;;;25.10;10.63;;;9.80;99.90;;;;;;5008904;28;20056;-76
2021/05/26 04:58:26;;;;;;;17.42;9.48;;;9.90;99.90;;;;;;5001935;28;20153;-76
2021/05/26 05:00:52;;;;;;;21.48;9.93;;;9.90;99.90;;;;;;4997669;28;20024;-76
2021/05/26 05:03:18;;;;;;;24.42;10.15;;;9.90;99.90;;;;;;5002082;28;20053;-77
2021/05/26 05:05:43;;;;;;;16.60;8.70;;;9.90;99.90;;;;;;4999917;28;20030;-77
2021/05/26 05:08:09;;;;;;;21.42;10.13;;;9.90;99.90;;;;;;4998213;28;20026;-75
2021/05/26 05:10:35;;;;;;;20.25;9.63;;;9.80;99.90;;;;;;5001226;28;20782;-79
2021/05/26 05:13:01;;;;;;;20.08;10.68;;;9.80;99.90;;;;;;4998730;28;20070;-80
2021/05/26 05:15:28;;;;;;;20.35;10.85;;;9.80;99.90;;;;;;5011783;28;20026;-78
2021/05/26 05:17:53;;;;;;;22.65;11.48;;;9.80;99.90;;;;;;5004368;28;20076;-77
2021/05/26 05:20:20;;;;;;;19.00;10.70;;;9.80;99.90;;;;;;5000008;28;20576;-78
2021/05/26 05:22:53;;;;;;;21.83;9.60;;;9.90;99.90;;;;;;5010670;28;20022;-75
2021/05/26 05:25:20;;;;;;;24.85;11.50;;;9.90;99.90;;;;;;5024038;28;20036;-77
2021/05/26 05:27:47;;;;;;;16.42;10.30;;;10.00;99.90;;;;;;5010252;28;20049;-75
2021/05/26 05:30:13;;;;;;;20.85;10.75;;;10.00;99.90;;;;;;5005773;28;20038;-78
2021/05/26 05:32:40;;;;;;;19.52;9.98;;;10.00;99.90;;;;;;5009525;28;20758;-77
2021/05/26 05:35:07;;;;;;;17.25;9.75;;;10.10;99.90;;;;;;5005408;28;20030;-76
2021/05/26 05:37:32;;;;;;;22.55;10.50;;;10.10;99.90;;;;;;5010927;28;20036;-75
2021/05/26 05:39:59;;;;;;;19.67;9.52;;;10.10;99.90;;;;;;5013529;28;20093;-75
2021/05/26 05:42:25;;;;;;;21.67;9.50;;;10.10;99.90;;;;;;5012835;28;20030;-77
2021/05/26 05:44:50;;;;;;;26.40;10.45;;;10.00;99.90;;;;;;5013496;28;20021;-76
2021/05/26 05:47:19;;;;;;;17.67;9.43;;;10.00;99.90;;;;;;5007181;28;20475;-77
2021/05/26 05:49:45;;;;;;;19.45;9.80;;;10.00;99.90;;;;;;5012559;28;20108;-77
2021/05/26 05:52:11;;;;;;;20.20;10.23;;;10.20;99.90;;;;;;5003301;28;20135;-76
2021/05/26 05:54:37;;;;;;;15.13;9.05;;;10.40;99.90;;;;;;5002875;28;20030;-77
2021/05/26 05:57:06;;;;;;;19.77;10.23;;;10.40;99.90;;;;;;5007142;28;20045;-77
2021/05/26 05:59:33;;;;;;;17.65;8.55;;;10.50;99.90;;;;;;5006997;28;20026;-76
2021/05/26 06:01:59;;;;;;;16.40;8.55;;;10.50;99.90;;;;;;5010826;28;20022;-75
2021/05/26 06:04:25;;;;;;;14.90;8.65;;;10.60;99.90;;;;;;5005926;28;20014;-76
2021/05/26 06:06:51;;;;;;;20.08;9.32;;;10.90;99.90;;;;;;5009173;28;20022;-78
2021/05/26 06:09:17;;;;;;;19.70;9.38;;;11.00;99.90;;;;;;5008163;28;20046;-77
2021/05/26 06:11:42;;;;;;;11.68;8.13;;;11.20;99.90;;;;;;5002730;28;20057;-77
2021/05/26 06:14:08;;;;;;;23.95;8.77;;;11.40;99.90;;;;;;5016829;28;20030;-77
2021/05/26 06:16:38;;;;;;;16.15;8.20;;;11.40;99.90;;;;;;5007769;28;20105;-78
2021/05/26 06:19:06;;;;;;;13.13;7.43;;;11.60;99.90;;;;;;5019867;28;20026;-78
2021/05/26 06:21:33;;;;;;;19.58;9.65;;;11.70;99.90;;;;;;5017271;28;20033;-76
2021/05/26 06:23:59;;;;;;;16.98;9.70;;;11.40;99.90;;;;;;5014473;28;20620;-77
2021/05/26 06:26:28;;;;;;;18.50;9.43;;;11.40;99.90;;;;;;5013954;28;20045;-77
2021/05/26 06:28:53;;;;;;;23.98;10.00;;;11.40;99.90;;;;;;5022272;28;20018;-77
2021/05/26 06:31:20;;;;;;;15.85;9.57;;;11.30;99.90;;;;;;4995232;28;20162;-76
2021/05/26 06:33:46;;;;;;;16.65;9.82;;;11.50;99.90;;;;;;4994776;28;20041;-74
2021/05/26 06:36:13;;;;;;;17.25;10.15;;;11.60;99.90;;;;;;5003371;28;20018;-76
2021/05/26 06:38:38;;;;;;;16.60;9.90;;;11.50;99.90;;;;;;5003966;28;20069;-77
2021/05/26 06:41:04;;;;;;;23.40;10.32;;;11.60;99.90;;;;;;5015154;28;20060;-77
2021/05/26 06:43:30;;;;;;;16.80;10.55;;;11.70;99.90;;;;;;4999093;28;20082;-76
2021/05/26 06:45:56;;;;;;;19.52;10.07;;;11.70;99.90;;;;;;4996706;28;20061;-77
2021/05/26 06:48:22;;;;;;;16.08;9.73;;;11.60;99.90;;;;;;5007353;28;20030;-76
2021/05/26 06:50:48;;;;;;;19.55;10.18;;;11.50;99.90;;;;;;5010823;28;20038;-76
2021/05/26 06:53:14;;;;;;;17.40;9.60;;;11.60;99.90;;;;;;5000443;28;20025;-77
2021/05/26 06:55:41;;;;;;;24.17;10.13;;;11.60;99.90;;;;;;5005259;28;20022;-77
2021/05/26 06:58:06;;;;;;;19.10;10.88;;;11.50;99.90;;;;;;5007519;28;20041;-76
2021/05/26 07:00:34;;;;;;;14.30;8.88;;;11.40;99.90;;;;;;5008428;28;20034;-78
2021/05/26 07:03:00;;;;;;;18.33;10.27;;;11.50;99.90;;;;;;5012378;28;20113;-76
2021/05/26 07:05:27;;;;;;;16.33;10.27;;;11.50;99.90;;;;;;5007574;28;20463;-78
2021/05/26 07:07:53;;;;;;;20.05;10.18;;;11.50;99.90;;;;;;5011093;28;20036;-75
2021/05/26 07:10:19;;;;;;;15.25;10.45;;;11.50;99.90;;;;;;5011102;28;20108;-78
2021/05/26 07:12:46;;;;;;;20.58;10.43;;;11.60;99.90;;;;;;5018419;28;20022;-77
2021/05/26 07:15:14;;;;;;;20.85;10.25;;;11.60;99.90;;;;;;5022897;28;20082;-76
2021/05/26 07:17:40;;;;;;;22.42;11.48;;;11.70;99.90;;;;;;5023979;28;20034;-78
2021/05/26 07:20:07;;;;;;;21.88;10.73;;;11.80;99.90;;;;;;5023025;28;20029;-78
2021/05/26 07:22:33;;;;;;;19.23;10.98;;;11.60;99.90;;;;;;5002333;28;20376;-78
2021/05/26 07:24:58;;;;;;;20.88;11.05;;;11.50;99.90;;;;;;5008964;28;20028;-76
2021/05/26 07:27:24;;;;;;;23.88;11.68;;;11.60;99.90;;;;;;5009695;28;20044;-74
2021/05/26 07:29:50;;;;;;;18.52;11.35;;;11.80;99.90;;;;;;5006422;28;20125;-76
2021/05/26 07:32:15;;;;;;;16.70;10.77;;;12.00;99.90;;;;;;5008821;28;20695;-75
2021/05/26 07:34:41;;;;;;;23.60;12.07;;;12.10;99.90;;;;;;5007917;28;20157;-76
2021/05/26 07:37:09;;;;;;;20.38;11.10;;;12.20;99.90;;;;;;5009030;28;20034;-76
2021/05/26 07:39:35;;;;;;;19.88;11.30;;;12.10;99.90;;;;;;5005540;28;20526;-75
2021/05/26 07:42:03;;;;;;;17.60;10.70;;;12.00;99.90;;;;;;5008760;28;20069;-76
2021/05/26 07:44:30;;;;;;;19.00;11.85;;;12.10;99.90;;;;;;5017568;28;20078;-76
2021/05/26 07:46:56;;;;;;;17.88;10.63;;;12.00;99.90;;;;;;5003580;28;20029;-77
2021/05/26 07:49:23;;;;;;;18.58;10.18;;;12.10;99.90;;;;;;5012695;28;20021;-75
2021/05/26 07:51:52;;;;;;;22.70;11.80;;;12.00;99.90;;;;;;5005981;28;20018;-75
2021/05/26 07:54:22;;;;;;;18.58;10.55;;;12.00;99.90;;;;;;5006809;28;20033;-77
2021/05/26 07:56:49;;;;;;;19.40;11.23;;;12.00;99.90;;;;;;5006039;28;20037;-75
2021/05/26 07:59:15;;;;;;;16.38;9.77;;;12.00;99.90;;;;;;5008388;28;20101;-77
2021/05/26 08:01:42;;;;;;;22.48;9.82;;;12.10;99.90;;;;;;5005303;28;20068;-76
2021/05/26 08:04:08;;;;;;;14.50;9.63;;;12.00;99.90;;;;;;4993864;28;20049;-75
2021/05/26 08:06:34;;;;;;;17.88;8.75;;;11.90;99.90;;;;;;5002762;28;20313;-75
2021/05/26 08:09:00;;;;;;;17.45;9.40;;;12.10;99.90;;;;;;5012660;28;20042;-77
2021/05/26 08:11:25;;;;;;;16.48;9.23;;;12.20;99.90;;;;;;5013316;28;20034;-75
2021/05/26 08:13:52;;;;;;;19.38;10.07;;;12.30;99.90;;;;;;5001346;28;20464;-74
2021/05/26 08:16:18;;;;;;;15.95;9.48;;;12.30;99.90;;;;;;5013260;28;20041;-73
2021/05/26 08:18:43;;;;;;;17.38;8.70;;;12.30;99.90;;;;;;5006263;28;20422;-77
2021/05/26 08:21:11;;;;;;;14.57;7.90;;;12.40;99.90;;;;;;5006666;28;20034;-74
2021/05/26 08:23:36;;;;;;;15.30;8.02;;;12.50;99.90;;;;;;5002255;28;20020;-76
2021/05/26 08:26:03;;;;;;;12.13;7.85;;;12.40;99.90;;;;;;5007100;28;20097;-76
2021/05/26 08:28:29;;;;;;;15.80;8.75;;;12.30;99.90;;;;;;4995425;28;20022;-74
2021/05/26 08:30:54;;;;;;;13.70;7.85;;;12.50;99.90;;;;;;4995657;28;20599;-73
2021/05/26 08:33:20;;;;;;;15.98;9.07;;;12.70;99.90;;;;;;5011008;28;20479;-75
2021/05/26 08:35:46;;;;;;;14.93;7.60;;;12.90;99.90;;;;;;4998772;28;20026;-75
2021/05/26 08:38:11;;;;;;;15.75;7.85;;;13.00;99.90;;;;;;4999971;28;20030;-75
2021/05/26 08:40:37;;;;;;;19.27;7.55;;;13.00;99.90;;;;;;5010192;28;20114;-75
2021/05/26 08:43:03;;;;;;;17.75;6.32;;;13.00;99.90;;;;;;5015384;28;20033;-75
2021/05/26 08:45:30;;;;;;;15.77;6.38;;;13.20;99.90;;;;;;5020737;28;20073;-76
2021/05/26 08:47:59;;;;;;;19.15;6.60;;;13.30;99.90;;;;;;5012766;28;20102;-75
2021/05/26 08:50:25;;;;;;;13.50;6.15;;;13.50;99.90;;;;;;5006435;28;20056;-74
2021/05/26 08:52:51;;;;;;;14.40;5.45;;;13.60;99.90;;;;;;5004531;28;20022;-75
2021/05/26 08:55:17;;;;;;;9.13;5.22;;;13.40;99.90;;;;;;5011583;28;20068;-74
2021/05/26 08:57:43;;;;;;;10.07;5.63;;;13.50;99.90;;;;;;5000159;28;20026;-76
2021/05/26 09:00:10;;;;;;;16.05;4.85;;;13.30;99.90;;;;;;4999883;28;20030;-75
2021/05/26 09:02:35;;;;;;;9.68;5.15;;;13.20;99.90;;;;;;5007630;28;20025;-74
2021/05/26 09:05:01;;;;;;;8.75;5.43;;;13.40;99.90;;;;;;4998672;28;20048;-76
2021/05/26 09:07:30;;;;;;;11.98;4.57;;;13.60;99.90;;;;;;5006928;28;20026;-76
2021/05/26 09:10:05;;;;;;;9.43;4.28;;;13.90;99.90;;;;;;4997415;28;20451;-72
2021/05/26 09:12:37;;;;;;;8.38;4.45;;;13.90;99.90;;;;;;5006284;28;20022;-75
2021/05/26 09:15:04;;;;;;;;;;;13.60;99.90;;;;;;5015059;28;20037;-73
2021/05/26 09:17:31;;;;;;;10.75;4.05;;;13.80;99.90;;;;;;5014394;28;19905;-76
2021/05/26 09:20:15;;;;;;;6.85;4.53;;;13.70;99.90;;;;;;4998045;28;20105;-70
2021/05/26 09:23:02;;;;;;;12.10;1.95;;;12.80;99.90;;;;;;5002171;28;20419;-73
2021/05/26 09:25:30;;;;;;;4.03;2.03;;;11.10;99.90;;;;;;5007309;28;20015;-73
2021/05/26 09:28:19;;;;;;;9.05;2.13;;;10.60;99.90;;;;;;4995736;28;20023;-74
2021/05/26 09:30:52;;;;;;;9.77;2.20;;;10.60;99.90;;;;;;4996149;28;20027;-76
2021/05/26 09:33:44;;;;;;;7.57;2.90;;;10.70;99.90;;;;;;5010519;28;20018;-74
2021/05/26 09:36:11;;;;;;;8.43;4.17;;;11.00;99.90;;;;;;4997896;28;20041;-77
2021/05/26 09:38:43;;;;;;;7.22;3.42;;;11.50;99.90;;;;;;5014764;28;20455;-78
2021/05/26 09:41:11;;;;;;;11.05;3.85;;;11.90;99.90;;;;;;4998291;28;20034;-77
2021/05/26 09:43:57;;;;;;;9.43;3.38;;;12.40;99.90;;;;;;5009780;28;20030;-76
2021/05/26 09:46:34;;;;;;;6.35;3.40;;;12.60;99.90;;;;;;4995682;28;20026;-74
2021/05/26 09:49:16;;;;;;;12.25;3.17;;;12.80;99.90;;;;;;4995643;28;20112;-74
2021/05/26 09:51:47;;;;;;;8.23;3.35;;;12.90;99.90;;;;;;4998210;28;20033;-76
2021/05/26 09:54:14;;;;;;;9.30;2.90;;;12.70;99.90;;;;;;5013737;28;20053;-74
2021/05/26 09:56:40;;;;;;;7.72;2.33;;;12.60;99.90;;;;;;4999195;28;20037;-76
2021/05/26 09:59:08;;;;;;;10.90;2.58;;;12.50;99.90;;;;;;5011295;28;20108;-77
2021/05/26 10:01:35;;;;;;;10.73;2.88;;;12.60;99.90;;;;;;5008958;28;20030;-75
2021/05/26 10:04:04;;;;;;;15.52;2.78;;;12.80;99.90;;;;;;4995375;28;20022;-77
2021/05/26 10:06:31;;;;;;;3.28;2.53;;;13.10;99.90;;;;;;5015814;28;20041;-75
2021/05/26 10:08:58;;;;;;;5.57;2.60;;;13.40;99.90;;;;;;5002578;28;20014;-75
2021/05/26 10:11:32;;;;;;;8.63;3.13;;;13.70;99.90;;;;;;5009058;28;20037;-74
2021/05/26 10:14:01;;;;;;;12.00;2.70;;;13.80;99.90;;;;;;5011391;28;20033;-78
2021/05/26 10:16:32;;;;;;;12.70;3.83;;;13.70;99.90;;;;;;5002656;28;20031;-73
2021/05/26 10:19:02;;;;;;;10.82;2.42;;;13.60;99.90;;;;;;4997760;28;20511;-76
2021/05/26 10:21:28;;;;;;;6.43;3.00;;;13.30;99.90;;;;;;5000464;28;20057;-74
2021/05/26 10:23:56;;;;;;;6.28;2.30;;;13.40;99.90;;;;;;5012157;28;20030;-74
2021/05/26 10:26:56;;;;;;;5.78;2.55;;;13.40;99.90;;;;;;5017169;28;20029;-75
2021/05/26 10:29:46;;;;;;;6.95;2.42;;;13.70;99.90;;;;;;5004067;28;20023;-76
2021/05/26 10:32:15;;;;;;;7.15;2.30;;;13.90;99.90;;;;;;5005529;28;20531;-76
2021/05/26 10:34:46;;;;;;;6.80;2.60;;;14.10;99.90;;;;;;5006343;28;20057;-75
2021/05/26 10:37:13;;;;;;;3.80;1.63;;;14.10;99.90;;;;;;4996019;28;20026;-74
2021/05/26 10:39:39;;;;;;;7.80;2.35;;;13.70;99.90;;;;;;5001969;28;20025;-76
2021/05/26 10:42:23;;;;;;;3.92;1.83;;;13.50;99.90;;;;;;5008613;28;20032;-75
2021/05/26 10:44:56;;;;;;;11.35;2.88;;;13.60;99.90;;;;;;5008304;28;20022;-74
2021/05/26 10:47:37;;;;;;;8.38;2.35;;;13.60;99.90;;;;;;4996058;28;20057;-75
2021/05/26 10:50:14;;;;;;;4.38;1.85;;;14.30;99.90;;;;;;5004263;28;20030;-74
2021/05/26 10:52:55;;;;;;;6.50;2.00;;;14.60;99.90;;;;;;5003787;28;20540;-72
2021/05/26 10:55:40;;;;;;;6.65;1.80;;;14.80;99.90;;;;;;4998269;28;20527;-75
2021/05/26 10:58:20;;;;;;;8.75;2.35;;;14.70;99.90;;;;;;5000408;28;20032;-74
2021/05/26 11:01:09;;;;;;;1.77;1.23;;;14.20;99.90;;;;;;5000124;28;20391;-74
2021/05/26 11:03:36;;;;;;;5.13;1.90;;;14.00;99.90;;;;;;4992066;28;20026;-75
2021/05/26 11:06:18;;;;;;;7.25;2.17;;;14.10;99.90;;;;;;5010318;28;20026;-75
2021/05/26 11:08:48;;;;;;;8.27;2.13;;;14.10;99.90;;;;;;5001154;28;20526;-74
2021/05/26 11:11:29;;;;;;;2.25;1.10;;;14.20;99.90;;;;;;5011544;28;20052;-75
2021/05/26 11:14:11;;;;;;;1.98;1.15;;;14.10;99.90;;;;;;5006141;28;20026;-70
2021/05/26 11:16:40;;;;;;;;;;;14.20;99.90;;;;;;5009163;28;20080;-72
2021/05/26 11:19:13;;;;;;;1.67;1.23;;;14.40;99.90;;;;;;5011356;28;19944;-74
2021/05/26 11:21:40;;;;;;;1.23;1.20;;;14.40;99.90;;;;;;5012221;28;20059;-75
2021/05/26 11:24:06;;;;;;;2.70;1.15;;;14.70;99.90;;;;;;5005155;28;20408;-75
2021/05/26 11:26:33;;;;;;;2.20;0.70;;;14.50;99.90;;;;;;5015007;28;20030;-74
2021/05/26 11:28:59;;;;;;;1.67;0.57;;;14.20;99.90;;;;;;4997760;28;20415;-72
2021/05/26 11:31:24;;;;;;;4.28;0.60;;;13.70;99.90;;;;;;5010885;28;20026;-71
2021/05/26 11:33:54;;;;;;;3.38;0.70;;;13.30;99.90;;;;;;5000972;28;20032;-75
2021/05/26 11:36:38;;;;;;;0.95;0.70;;;13.80;99.90;;;;;;5001822;28;20026;-77
2021/05/26 11:39:26;;;;;;;2.20;0.57;;;14.20;99.90;;;;;;4997768;28;20036;-73
2021/05/26 11:41:53;;;;;;;1.80;0.63;;;14.80;99.90;;;;;;5011274;28;20022;-75
2021/05/26 11:44:19;;;;;;;1.23;0.60;;;14.90;99.90;;;;;;5006615;28;20010;-76
2021/05/26 11:46:45;;;;;;;2.05;0.50;;;15.30;99.90;;;;;;4996462;28;20033;-74
2021/05/26 11:49:12;;;;;;;2.25;0.47;;;15.20;99.90;;;;;;5006188;28;20047;-77
2021/05/26 11:51:38;;;;;;;3.70;0.50;;;15.10;99.90;;;;;;5024601;28;20565;-79
2021/05/26 11:54:05;;;;;;;1.05;0.57;;;15.00;99.90;;;;;;5022528;28;20012;-76
2021/05/26 11:56:34;;;;;;;7.43;0.60;;;14.60;99.90;;;;;;5021051;28;20030;-73
2021/05/26 11:59:00;;;;;;;0.98;0.50;;;14.90;99.90;;;;;;5024765;28;20022;-73
2021/05/26 12:01:34;;;;;;;1.00;0.40;;;14.80;99.90;;;;;;5017132;28;20025;-74
2021/05/26 12:04:13;;;;;;;2.47;0.52;;;14.60;99.90;;;;;;5014806;28;20010;-75
2021/05/26 12:06:39;;;;;;;0.40;0.40;;;14.80;99.90;;;;;;5025908;28;20056;-73
2021/05/26 12:09:05;;;;;;;0.82;0.40;;;14.40;99.90;;;;;;5021937;28;20014;-74
2021/05/26 12:11:31;;;;;;;6.70;1.00;;;14.00;99.90;;;;;;5028291;28;20041;-73
2021/05/26 12:13:57;;;;;;;2.40;0.55;;;14.00;99.90;;;;;;5019622;28;20507;-73
2021/05/26 12:16:23;;;;;;;3.40;0.57;;;14.10;99.90;;;;;;5004403;28;20030;-75
2021/05/26 12:18:51;;;;;;;0.52;0.52;;;14.40;99.90;;;;;;5007513;28;20038;-75
2021/05/26 12:21:17;;;;;;;0.77;0.60;;;14.30;99.90;;;;;;5003929;28;20097;-72
2021/05/26 12:23:45;;;;;;;0.85;0.75;;;14.50;99.90;;;;;;5010507;28;20113;-74
2021/05/26 12:26:33;;;;;;;4.60;0.60;;;14.20;99.90;;;;;;5003620;28;20037;-74
2021/05/26 12:29:06;;;;;;;2.08;0.82;;;13.80;99.90;;;;;;4993915;28;20479;-72
2021/05/26 12:31:34;;;;;;;0.55;0.50;;;13.70;99.90;;;;;;4997439;28;20061;-74
2021/05/26 12:33:59;;;;;;;1.65;0.80;;;13.70;99.90;;;;;;5004786;28;20034;-73
2021/05/26 12:36:28;;;;;;;2.28;0.88;;;13.80;99.90;;;;;;5004328;28;20022;-73
2021/05/26 12:39:02;;;;;;;2.05;0.80;;;13.60;99.90;;;;;;5000619;28;20022;-72
2021/05/26 12:41:32;;;;;;;6.03;1.10;;;13.70;99.90;;;;;;5002670;28;20057;-74
2021/05/26 12:44:01;;;;;;;1.63;1.00;;;13.70;99.90;;;;;;5012142;28;20367;-74